createdAt,value
2022-09-20T00:02:15.055Z,8.03
2022-09-20T00:04:43.083Z,8.04
2022-09-20T00:07:15.644Z,8.02
2022-09-20T00:09:44.176Z,7.99
2022-09-20T00:12:12.381Z,7.94
2022-09-20T00:14:40.612Z,7.90
2022-09-20T00:17:08.601Z,7.87
2022-09-20T00:19:39.230Z,7.92
2022-09-20T00:22:08.987Z,7.90
2022-09-20T00:24:37.198Z,7.92
2022-09-20T00:27:05.665Z,7.92
2022-09-20T00:29:33.728Z,7.89
2022-09-20T00:32:02.141Z,7.87
2022-09-20T00:34:48.788Z,7.89
2022-09-20T00:37:18.472Z,7.89
2022-09-20T00:39:48.784Z,7.90
2022-09-20T00:42:17.278Z,7.90
2022-09-20T00:44:57.080Z,7.89
2022-09-20T00:47:47.328Z,7.93
2022-09-20T00:50:25.869Z,7.92
2022-09-20T00:52:59.681Z,7.94
2022-09-20T00:55:29.710Z,7.92
2022-09-20T00:57:58.651Z,7.89
2022-09-20T01:00:29.401Z,7.89
2022-09-20T01:03:00.556Z,7.89
2022-09-20T01:05:31.387Z,7.89
2022-09-20T01:08:01.824Z,7.87
2022-09-20T01:10:30.509Z,7.87
2022-09-20T01:12:59.601Z,7.86
2022-09-20T01:15:28.907Z,7.92
2022-09-20T01:18:01.351Z,7.94
2022-09-20T01:20:31.965Z,7.97
2022-09-20T01:23:25.567Z,7.97
2022-09-20T01:26:15.311Z,8.03
2022-09-20T01:28:48.132Z,8.03
2022-09-20T01:31:19.077Z,8.03
2022-09-20T01:33:51.091Z,8.03
2022-09-20T01:36:23.383Z,8.10
2022-09-20T01:38:58.220Z,8.11
2022-09-20T01:41:30.347Z,8.19
2022-09-20T01:44:07.322Z,8.24
2022-09-20T01:46:37.992Z,8.30
2022-09-20T01:49:19.558Z,8.37
2022-09-20T01:52:05.294Z,8.38
2022-09-20T01:54:58.002Z,8.47
2022-09-20T01:57:41.455Z,8.47
2022-09-20T02:00:26.432Z,8.48
2022-09-20T02:03:16.546Z,8.47
2022-09-20T02:06:23.353Z,8.44
2022-09-20T02:09:17.742Z,8.45
2022-09-20T02:11:59.078Z,8.48
2022-09-20T02:14:37.290Z,8.51
2022-09-20T02:17:14.616Z,8.52
2022-09-20T02:19:54.277Z,8.54
2022-09-20T02:22:33.579Z,8.60
2022-09-20T02:25:11.714Z,8.62
2022-09-20T02:27:49.206Z,8.67
2022-09-20T02:30:30.610Z,8.68
2022-09-20T02:33:16.018Z,8.71
2022-09-20T02:36:00.303Z,8.73
2022-09-20T02:38:38.539Z,8.79
2022-09-20T02:41:45.983Z,8.85
2022-09-20T02:44:22.485Z,8.85
2022-09-20T02:46:55.179Z,8.90
2022-09-20T02:49:30.132Z,8.93
2022-09-20T02:51:59.607Z,8.96
2022-09-20T02:54:35.649Z,8.98
2022-09-20T02:57:07.500Z,8.99
2022-09-20T02:59:42.227Z,9.00
2022-09-20T03:02:22.648Z,9.05
2022-09-20T03:05:06.223Z,9.08
2022-09-20T03:07:41.564Z,9.09
2022-09-20T03:10:17.492Z,9.12
2022-09-20T03:12:55.427Z,9.12
2022-09-20T03:15:32.927Z,9.13
2022-09-20T03:18:10.854Z,9.15
2022-09-20T03:20:48.227Z,9.15
2022-09-20T03:23:29.864Z,9.16
2022-09-20T03:26:02.038Z,9.20
2022-09-20T03:28:43.593Z,9.23
2022-09-20T03:31:25.718Z,9.20
2022-09-20T03:34:02.231Z,9.24
2022-09-20T03:36:48.055Z,9.24
2022-09-20T03:39:37.786Z,9.23
2022-09-20T03:42:16.981Z,9.22
2022-09-20T03:45:00.910Z,9.22
2022-09-20T03:47:42.917Z,9.27
2022-09-20T03:50:22.374Z,9.27
2022-09-20T03:53:31.260Z,9.22
2022-09-20T03:56:11.739Z,9.23
2022-09-20T03:58:56.444Z,9.22
2022-09-20T04:01:40.749Z,9.24
2022-09-20T04:04:18.453Z,9.24
2022-09-20T04:07:06.392Z,9.24
2022-09-20T04:09:47.676Z,9.20
2022-09-20T04:12:25.381Z,9.22
2022-09-20T04:14:58.535Z,9.24
2022-09-20T04:17:32.532Z,9.26
2022-09-20T04:20:05.753Z,9.30
2022-09-20T04:22:36.866Z,9.33
2022-09-20T04:25:19.548Z,9.33
2022-09-20T04:27:50.421Z,9.33
2022-09-20T04:30:21.486Z,9.33
2022-09-20T04:32:54.517Z,9.27
2022-09-20T04:35:52.133Z,9.29
2022-09-20T04:38:22.600Z,9.31
2022-09-20T04:41:04.152Z,9.29
2022-09-20T04:43:54.355Z,9.24
2022-09-20T04:46:41.393Z,9.24
2022-09-20T04:49:34.173Z,9.22
2022-09-20T04:52:08.844Z,9.16
2022-09-20T04:55:12.502Z,9.08
2022-09-20T04:58:19.627Z,9.06
2022-09-20T05:01:06.223Z,9.00
2022-09-20T05:04:14.364Z,8.96
2022-09-20T05:07:03.213Z,8.90
2022-09-20T05:09:53.889Z,8.88
2022-09-20T05:12:54.776Z,8.88
2022-09-20T05:15:35.742Z,8.85
2022-09-20T05:18:27.714Z,8.85
2022-09-20T05:21:11.486Z,8.83
2022-09-20T05:24:08.372Z,8.85
2022-09-20T05:26:52.215Z,8.86
2022-09-20T05:29:25.779Z,8.85
2022-09-20T05:31:57.681Z,8.90
2022-09-20T05:34:34.772Z,8.92
2022-09-20T05:37:08.026Z,9.03
2022-09-20T05:39:40.176Z,9.34
2022-09-20T05:42:18.357Z,9.68
2022-09-20T05:44:55.994Z,9.92
2022-09-20T05:47:36.394Z,9.94
2022-09-20T05:50:20.486Z,9.94
2022-09-20T05:52:54.916Z,9.95
2022-09-20T05:55:48.248Z,10.09
2022-09-20T05:58:24.794Z,10.20
2022-09-20T06:00:59.162Z,10.25
2022-09-20T06:03:36.061Z,10.36
2022-09-20T06:06:10.857Z,10.53
2022-09-20T06:08:58.265Z,10.52
2022-09-20T06:12:00.515Z,10.57
2022-09-20T06:14:40.094Z,10.70
2022-09-20T06:17:17.667Z,10.85
2022-09-20T06:19:47.599Z,10.99
2022-09-20T06:22:22.955Z,11.02
2022-09-20T06:24:58.180Z,10.95
2022-09-20T06:27:29.626Z,10.85
2022-09-20T06:30:01.023Z,10.84
2022-09-20T06:32:29.479Z,11.01
2022-09-20T06:34:57.884Z,11.15
2022-09-20T06:37:57.580Z,11.22
2022-09-20T06:40:53.224Z,11.25
2022-09-20T06:43:30.593Z,11.19
2022-09-20T06:45:59.076Z,11.14
2022-09-20T06:48:27.291Z,11.02
2022-09-20T06:50:55.558Z,10.97
2022-09-20T06:53:29.479Z,10.89
2022-09-20T06:55:58.052Z,10.83
2022-09-20T06:58:27.514Z,10.73
2022-09-20T07:00:55.658Z,10.70
2022-09-20T07:03:24.602Z,10.76
2022-09-20T07:05:52.712Z,10.98
2022-09-20T07:08:21.081Z,11.32
2022-09-20T07:10:51.966Z,11.71
2022-09-20T07:13:20.903Z,12.04
2022-09-20T07:15:49.211Z,12.38
2022-09-20T07:18:17.424Z,12.62
2022-09-20T07:20:45.424Z,12.82
2022-09-20T07:23:15.764Z,13.20
2022-09-20T07:25:46.655Z,13.44
2022-09-20T07:28:16.406Z,13.65
2022-09-20T07:30:44.717Z,13.98
2022-09-20T07:33:17.436Z,14.19
2022-09-20T07:35:47.155Z,14.13
2022-09-20T07:38:15.876Z,14.02
2022-09-20T07:40:44.805Z,14.13
2022-09-20T07:43:13.540Z,14.28
2022-09-20T07:45:43.112Z,14.63
2022-09-20T07:48:12.007Z,15.13
2022-09-20T07:50:40.137Z,15.82
2022-09-20T07:53:08.582Z,16.47
2022-09-20T07:55:37.104Z,16.84
2022-09-20T07:58:05.233Z,16.88
2022-09-20T08:00:33.383Z,17.04
2022-09-20T08:03:06.047Z,17.27
2022-09-20T08:05:35.864Z,17.25
2022-09-20T08:08:04.257Z,17.02
2022-09-20T08:10:33.034Z,16.64
2022-09-20T08:15:49.266Z,16.01
2022-09-20T08:18:18.936Z,15.79
2022-09-20T08:20:47.043Z,15.73
2022-09-20T08:23:23.339Z,15.84
2022-09-20T08:25:52.083Z,16.02
2022-09-20T08:28:20.252Z,16.30
2022-09-20T08:30:48.437Z,16.71
2022-09-20T08:33:18.129Z,16.74
2022-09-20T08:35:50.027Z,16.73
2022-09-20T08:41:12.524Z,16.39
2022-09-20T08:43:45.590Z,16.06
2022-09-20T08:46:16.590Z,15.88
2022-09-20T08:48:46.632Z,15.50
2022-09-20T08:51:22.588Z,15.36
2022-09-20T08:53:53.891Z,15.40
2022-09-20T08:56:22.826Z,15.74
2022-09-20T08:58:51.252Z,15.75
2022-09-20T09:01:22.869Z,15.60
2022-09-20T09:03:55.224Z,15.46
2022-09-20T09:06:23.417Z,15.30
2022-09-20T09:08:53.912Z,15.33
2022-09-20T09:11:23.541Z,15.35
2022-09-20T09:13:54.745Z,15.43
2022-09-20T09:16:31.858Z,15.71
2022-09-20T09:19:33.297Z,16.16
2022-09-20T09:22:03.139Z,16.16
2022-09-20T09:24:32.109Z,16.08
2022-09-20T09:27:08.208Z,15.82
2022-09-20T09:29:36.779Z,15.61
2022-09-20T09:32:23.771Z,15.67
2022-09-20T09:34:53.574Z,16.04
2022-09-20T09:37:30.659Z,16.02
2022-09-20T09:40:09.305Z,15.81
2022-09-20T09:42:37.460Z,15.64
2022-09-20T09:45:12.876Z,15.54
2022-09-20T09:47:42.382Z,15.36
2022-09-20T09:50:23.649Z,15.20
2022-09-20T09:52:59.373Z,15.06
2022-09-20T09:55:38.131Z,14.96
2022-09-20T09:58:10.319Z,14.92
2022-09-20T10:00:43.103Z,14.85
2022-09-20T10:03:34.403Z,15.07
2022-09-20T10:06:09.715Z,15.47
2022-09-20T10:08:43.648Z,15.71
2022-09-20T10:11:21.609Z,15.90
2022-09-20T10:13:58.718Z,16.25
2022-09-20T10:16:39.805Z,16.62
2022-09-20T10:19:14.381Z,16.64
2022-09-20T10:21:50.875Z,16.49
2022-09-20T10:24:30.874Z,16.23
2022-09-20T10:27:26.564Z,15.98
2022-09-20T10:30:04.254Z,15.82
2022-09-20T10:32:50.286Z,15.70
2022-09-20T10:35:27.655Z,15.70
2022-09-20T10:38:14.703Z,15.73
2022-09-20T10:41:10.472Z,15.97
2022-09-20T10:43:55.375Z,16.12
2022-09-20T10:46:32.832Z,16.19
2022-09-20T10:49:26.725Z,16.44
2022-09-20T10:52:09.226Z,16.44
2022-09-20T10:54:41.837Z,16.06
2022-09-20T10:57:25.711Z,15.91
2022-09-20T10:59:59.480Z,15.97
2022-09-20T11:02:47.232Z,16.23
2022-09-20T11:05:25.402Z,16.66
2022-09-20T11:08:00.615Z,16.98
2022-09-20T11:10:36.325Z,17.36
2022-09-20T11:13:11.900Z,17.90
2022-09-20T11:15:44.011Z,18.44
2022-09-20T11:18:14.082Z,18.72
2022-09-20T11:20:45.785Z,19.08
2022-09-20T11:23:15.604Z,19.16
2022-09-20T11:25:48.192Z,19.03
2022-09-20T11:28:20.917Z,18.99
2022-09-20T11:30:56.317Z,18.73
2022-09-20T11:33:27.039Z,18.85
2022-09-20T11:35:59.750Z,18.72
2022-09-20T11:38:31.260Z,18.42
2022-09-20T11:41:06.420Z,18.18
2022-09-20T11:43:41.563Z,17.97
2022-09-20T11:46:13.467Z,17.65
2022-09-20T11:48:46.662Z,17.39
2022-09-20T11:51:49.919Z,17.15
2022-09-20T11:54:43.507Z,17.24
2022-09-20T11:57:16.766Z,17.43
2022-09-20T11:59:51.417Z,17.45
2022-09-20T12:02:25.050Z,17.65
2022-09-20T12:04:57.026Z,18.00
2022-09-20T12:07:29.813Z,18.17
2022-09-20T12:10:00.983Z,18.16
2022-09-20T12:12:35.414Z,18.16
2022-09-20T12:15:09.504Z,18.17
2022-09-20T12:18:15.662Z,18.17
2022-09-20T12:21:14.995Z,18.14
2022-09-20T12:24:14.069Z,18.10
2022-09-20T12:26:47.197Z,18.20
2022-09-20T12:30:03.817Z,18.32
2022-09-20T12:32:45.159Z,18.41
2022-09-20T12:35:56.343Z,18.35
2022-09-20T12:38:34.140Z,18.14
2022-09-20T12:41:10.251Z,17.94
2022-09-20T12:43:41.458Z,17.69
2022-09-20T12:46:21.021Z,17.53
2022-09-20T12:48:51.773Z,17.45
2022-09-20T12:51:41.202Z,17.48
2022-09-20T12:54:14.588Z,17.59
2022-09-20T12:56:48.569Z,17.56
2022-09-20T12:59:22.839Z,17.43
2022-09-20T13:01:53.534Z,17.36
2022-09-20T13:04:42.469Z,17.11
2022-09-20T13:07:43.954Z,16.73
2022-09-20T13:10:30.629Z,15.54
2022-09-20T13:13:06.188Z,14.45
2022-09-20T13:15:36.267Z,13.13
2022-09-20T13:18:06.307Z,12.21
2022-09-20T13:20:35.918Z,11.60
2022-09-20T13:23:06.468Z,11.15
2022-09-20T13:25:36.543Z,10.85
2022-09-20T13:28:10.546Z,10.64
2022-09-20T13:30:41.949Z,10.53
2022-09-20T13:33:22.753Z,10.43
2022-09-20T13:35:54.571Z,10.45
2022-09-20T13:38:24.481Z,10.49
2022-09-20T13:40:54.187Z,10.52
2022-09-20T13:43:29.028Z,10.64
2022-09-20T13:45:59.057Z,10.74
2022-09-20T13:48:30.903Z,10.80
2022-09-20T13:51:00.135Z,10.81
2022-09-20T13:53:46.837Z,10.85
2022-09-20T13:56:19.868Z,10.87
2022-09-20T13:58:49.515Z,10.91
2022-09-20T14:01:24.835Z,10.92
2022-09-20T14:03:57.411Z,10.95
2022-09-20T14:06:28.410Z,10.98
2022-09-20T14:09:01.347Z,11.05
2022-09-20T14:11:32.150Z,11.12
2022-09-20T14:14:02.266Z,11.12
2022-09-20T14:16:36.858Z,11.14
2022-09-20T14:22:08.111Z,11.11
2022-09-20T14:24:37.243Z,11.08
2022-09-20T14:27:13.311Z,11.05
2022-09-20T14:29:43.230Z,11.02
2022-09-20T14:32:21.765Z,11.01
2022-09-20T14:34:59.957Z,10.95
2022-09-20T14:37:31.467Z,10.98
2022-09-20T14:40:01.286Z,10.97
2022-09-20T14:42:32.528Z,10.98
2022-09-20T14:45:00.796Z,10.98
2022-09-20T14:47:29.844Z,10.97
2022-09-20T14:49:58.981Z,10.98
2022-09-20T14:52:38.522Z,10.95
2022-09-20T14:55:20.633Z,10.91
2022-09-20T14:58:10.501Z,10.88
2022-09-20T15:00:49.915Z,10.88
2022-09-20T15:03:23.707Z,10.85
2022-09-20T15:05:51.897Z,10.85
2022-09-20T15:08:21.242Z,10.80
2022-09-20T15:10:49.339Z,10.76
2022-09-20T15:13:17.561Z,10.71
2022-09-20T15:15:46.738Z,10.68
2022-09-20T15:18:21.530Z,10.66
2022-09-20T15:20:50.000Z,10.66
2022-09-20T15:23:18.294Z,10.66
2022-09-20T15:25:50.638Z,10.70
2022-09-20T15:28:18.632Z,10.74
2022-09-20T15:30:50.980Z,10.84
2022-09-20T15:33:19.927Z,10.91
2022-09-20T15:35:48.831Z,11.01
2022-09-20T15:38:18.040Z,11.05
2022-09-20T15:40:49.118Z,11.16
2022-09-20T15:43:19.483Z,11.22
2022-09-20T15:45:50.423Z,11.32
2022-09-20T15:48:21.322Z,11.40
2022-09-20T15:51:02.829Z,11.43
2022-09-20T15:53:33.501Z,11.50
2022-09-20T15:56:04.743Z,11.53
2022-09-20T15:58:36.192Z,11.53
2022-09-20T16:01:06.430Z,11.50
2022-09-20T16:06:27.844Z,11.40
2022-09-20T16:08:56.486Z,11.36
2022-09-20T16:11:27.947Z,11.34
2022-09-20T16:13:57.526Z,11.26
2022-09-20T16:16:26.492Z,11.15
2022-09-20T16:19:12.958Z,11.12
2022-09-20T16:21:42.544Z,11.02
2022-09-20T16:24:12.533Z,10.94
2022-09-20T16:26:42.151Z,10.84
2022-09-20T16:29:11.673Z,10.73
2022-09-20T16:31:41.476Z,10.67
2022-09-20T16:34:13.710Z,10.59
2022-09-20T16:36:43.355Z,10.55
2022-09-20T16:39:13.619Z,10.47
2022-09-20T16:41:47.145Z,10.40
2022-09-20T16:44:18.689Z,10.34
2022-09-20T16:46:47.569Z,10.33
2022-09-20T16:49:17.005Z,10.27
2022-09-20T16:51:46.334Z,10.19
2022-09-20T16:54:19.597Z,10.10
2022-09-20T16:56:50.067Z,10.08
2022-09-20T16:59:20.791Z,10.06
2022-09-20T17:01:49.204Z,9.97
2022-09-20T17:04:23.729Z,9.87
2022-09-20T17:06:52.166Z,9.84
2022-09-20T17:09:20.933Z,9.78
2022-09-20T17:11:51.403Z,9.65
2022-09-20T17:14:20.754Z,9.54
2022-09-20T17:16:49.215Z,9.47
2022-09-20T17:19:18.863Z,9.39
2022-09-20T17:21:49.361Z,9.31
2022-09-20T17:24:18.044Z,9.20
2022-09-20T17:26:46.680Z,9.18
2022-09-20T17:29:17.719Z,9.09
2022-09-20T17:31:54.063Z,9.06
2022-09-20T17:34:23.819Z,8.96
2022-09-20T17:36:51.803Z,8.95
2022-09-20T17:39:19.726Z,8.90
2022-09-20T17:41:48.918Z,8.83
2022-09-20T17:44:18.551Z,8.78
2022-09-20T17:46:48.363Z,8.78
2022-09-20T17:49:19.323Z,8.76
2022-09-20T17:51:48.818Z,8.71
2022-09-20T17:54:17.131Z,8.65
2022-09-20T17:56:47.209Z,8.64
2022-09-20T17:59:16.485Z,8.61
2022-09-20T18:01:47.524Z,8.62
2022-09-20T18:04:16.079Z,8.68
2022-09-20T18:06:47.022Z,8.68
2022-09-20T18:09:16.525Z,8.71
2022-09-20T18:11:46.392Z,8.76
2022-09-20T18:14:14.440Z,8.73
2022-09-20T18:16:43.175Z,8.75
2022-09-20T18:19:12.603Z,8.73
2022-09-20T18:21:41.266Z,8.69
2022-09-20T18:24:10.184Z,8.71
2022-09-20T18:26:38.933Z,8.69
2022-09-20T18:29:08.002Z,8.64
2022-09-20T18:31:37.931Z,8.61
2022-09-20T18:34:07.335Z,8.54
2022-09-20T18:36:39.616Z,8.54
2022-09-20T18:39:08.160Z,8.45
2022-09-20T18:41:37.397Z,8.42
2022-09-20T18:44:07.562Z,8.40
2022-09-20T18:46:38.138Z,8.31
2022-09-20T18:49:09.336Z,8.20
2022-09-20T18:51:39.963Z,8.17
2022-09-20T18:54:10.002Z,8.09
2022-09-20T18:56:38.959Z,8.03
2022-09-20T18:59:08.918Z,8.00
2022-09-20T19:01:56.389Z,7.99
2022-09-20T19:04:32.862Z,7.93
2022-09-20T19:07:08.516Z,7.86
2022-09-20T19:09:40.400Z,7.78
2022-09-20T19:12:16.945Z,7.71
2022-09-20T19:14:57.387Z,7.63
2022-09-20T19:17:35.667Z,7.54
2022-09-20T19:20:05.699Z,7.48
2022-09-20T19:22:53.829Z,7.44
2022-09-20T19:25:27.097Z,7.45
2022-09-20T19:27:55.409Z,7.42
2022-09-20T19:30:23.984Z,7.34
2022-09-20T19:32:52.465Z,7.30
2022-09-20T19:35:23.520Z,7.35
2022-09-20T19:38:03.817Z,7.35
2022-09-20T19:40:39.734Z,7.30
2022-09-20T19:43:23.724Z,7.27
2022-09-20T19:45:57.180Z,7.24
2022-09-20T19:48:29.947Z,7.21
2022-09-20T19:50:58.323Z,7.20
2022-09-20T19:53:28.755Z,7.15
2022-09-20T19:56:00.745Z,7.10
2022-09-20T19:58:29.032Z,7.04
2022-09-20T20:00:58.432Z,7.01
2022-09-20T20:03:27.516Z,7.01
2022-09-20T20:06:05.715Z,7.00
2022-09-20T20:08:40.519Z,6.96
2022-09-20T20:11:17.128Z,7.00
2022-09-20T20:14:04.509Z,7.00
2022-09-20T20:16:37.462Z,6.96
2022-09-20T20:19:12.398Z,6.90
2022-09-20T20:21:46.800Z,6.93
2022-09-20T20:24:25.828Z,6.93
2022-09-20T20:26:53.939Z,6.90
2022-09-20T20:29:21.859Z,6.87
2022-09-20T20:31:49.788Z,6.86
2022-09-20T20:34:17.780Z,6.83
2022-09-20T20:36:45.719Z,6.92
2022-09-20T20:39:14.105Z,6.93
2022-09-20T20:41:44.078Z,7.03
2022-09-20T20:44:12.448Z,7.11
2022-09-20T20:46:40.428Z,7.13
2022-09-20T20:49:08.472Z,7.15
2022-09-20T20:51:36.393Z,7.10
2022-09-20T20:54:04.691Z,7.04
2022-09-20T20:56:32.992Z,7.00
2022-09-20T20:59:04.956Z,6.96
2022-09-20T21:01:34.156Z,6.93
2022-09-20T21:04:03.304Z,6.93
2022-09-20T21:06:33.079Z,6.92
2022-09-20T21:09:01.739Z,6.92
2022-09-20T21:11:31.779Z,6.86
2022-09-20T21:14:02.121Z,6.87
2022-09-20T21:16:31.813Z,6.82
2022-09-20T21:18:59.931Z,6.72
2022-09-20T21:21:29.914Z,6.69
2022-09-20T21:23:59.351Z,6.71
2022-09-20T21:26:28.480Z,6.69
2022-09-20T21:28:58.996Z,6.62
2022-09-20T21:31:29.456Z,6.53
2022-09-20T21:33:58.094Z,6.49
2022-09-20T21:36:27.017Z,6.44
2022-09-20T21:38:55.280Z,6.36
2022-09-20T21:41:24.411Z,6.34
2022-09-20T21:43:54.866Z,6.29
2022-09-20T21:46:25.803Z,6.39
2022-09-20T21:48:55.806Z,6.41
2022-09-20T21:51:24.711Z,6.36
2022-09-20T21:53:56.481Z,6.32
2022-09-20T21:56:26.240Z,6.29
2022-09-20T21:58:55.028Z,6.25
2022-09-20T22:01:24.263Z,6.20
2022-09-20T22:03:54.873Z,6.26
2022-09-20T22:06:27.018Z,6.35
2022-09-20T22:08:58.390Z,6.36
2022-09-20T22:11:27.992Z,6.32
2022-09-20T22:13:56.894Z,6.24
2022-09-20T22:16:26.804Z,6.31
2022-09-20T22:18:56.206Z,6.26
2022-09-20T22:21:27.239Z,6.18
2022-09-20T22:23:57.279Z,6.11
2022-09-20T22:26:26.964Z,6.13
2022-09-20T22:28:55.013Z,6.14
2022-09-20T22:31:24.261Z,6.11
2022-09-20T22:33:53.582Z,6.04
2022-09-20T22:36:23.556Z,5.93
2022-09-20T22:38:53.870Z,5.90
2022-09-20T22:41:22.045Z,5.91
2022-09-20T22:43:50.557Z,5.90
2022-09-20T22:46:19.872Z,5.91
2022-09-20T22:48:48.746Z,5.89
2022-09-20T22:51:18.437Z,5.80
2022-09-20T22:53:46.954Z,5.89
2022-09-20T22:56:18.004Z,5.90
2022-09-20T22:59:06.665Z,5.89
2022-09-20T23:01:35.891Z,5.83
2022-09-20T23:04:06.091Z,5.83
2022-09-20T23:06:36.081Z,5.77
2022-09-20T23:09:06.219Z,5.83
2022-09-20T23:11:36.752Z,5.83
2022-09-20T23:14:05.994Z,5.84
2022-09-20T23:16:35.477Z,5.89
2022-09-20T23:19:05.037Z,5.86
2022-09-20T23:21:33.950Z,5.87
2022-09-20T23:24:03.990Z,5.82
2022-09-20T23:26:33.434Z,5.83
2022-09-20T23:29:04.580Z,5.80
2022-09-20T23:31:34.559Z,5.70
2022-09-20T23:34:04.156Z,5.69
2022-09-20T23:36:33.783Z,5.66
2022-09-20T23:39:01.926Z,5.67
2022-09-20T23:41:29.965Z,5.67
2022-09-20T23:43:58.175Z,5.67
2022-09-20T23:46:27.983Z,5.62
2022-09-20T23:48:56.007Z,5.56
2022-09-20T23:51:25.768Z,5.63
2022-09-20T23:53:54.996Z,5.74
2022-09-20T23:56:23.936Z,5.84
2022-09-20T23:58:54.160Z,5.94
